Terminal Aerodrome Forecast
Issued by NWS

Current Version | Previous Version | Text Only | Print | Product List | Glossary Off
Versions: 1 2 3 4 5 6 7 8 9 10 11 12 13 14 15 16 17 18 19 20

000
FTUS41 KILN 222335
TAFLUK
TAF
KLUK 222335Z 2300/2324 20005KT P6SM FEW040 SCT250
     FM230100 00000KT P6SM SCT040 BKN250
     FM230600 00000KT 4SM BR FEW025 SCT250
      TEMPO 2308/2312 1/2SM FG
     FM231300 25005KT P6SM FEW050 SCT250=

USA.gov is the U.S. government's official web portal to all federal, state and local government web resources and services.